sensor_id;sensor_type;location;lat;lon;timestamp;P1;durP1;ratioP1;P2;durP2;ratioP2
7181;SDS011;3632;42.724;23.298;2022-07-29T00:01:40;10.63;;;9.63;;
7181;SDS011;3632;42.724;23.298;2022-07-29T00:04:07;10.47;;;9.53;;
7181;SDS011;3632;42.724;23.298;2022-07-29T00:06:33;13.33;;;9.27;;
7181;SDS011;3632;42.724;23.298;2022-07-29T00:09:00;10.80;;;9.70;;
7181;SDS011;3632;42.724;23.298;2022-07-29T00:11:27;11.70;;;9.80;;
7181;SDS011;3632;42.724;23.298;2022-07-29T00:13:53;11.07;;;10.17;;
7181;SDS011;3632;42.724;23.298;2022-07-29T00:16:20;11.30;;;10.27;;
7181;SDS011;3632;42.724;23.298;2022-07-29T00:18:49;11.27;;;10.17;;
7181;SDS011;3632;42.724;23.298;2022-07-29T00:21:16;12.50;;;11.20;;
7181;SDS011;3632;42.724;23.298;2022-07-29T00:23:43;12.90;;;11.67;;
7181;SDS011;3632;42.724;23.298;2022-07-29T00:26:09;16.23;;;14.53;;
7181;SDS011;3632;42.724;23.298;2022-07-29T00:28:36;13.97;;;12.63;;
7181;SDS011;3632;42.724;23.298;2022-07-29T00:31:03;12.87;;;11.70;;
7181;SDS011;3632;42.724;23.298;2022-07-29T00:33:29;12.53;;;11.43;;
7181;SDS011;3632;42.724;23.298;2022-07-29T00:35:58;12.17;;;10.97;;
7181;SDS011;3632;42.724;23.298;2022-07-29T00:38:23;12.20;;;11.10;;
7181;SDS011;3632;42.724;23.298;2022-07-29T00:40:50;12.47;;;11.30;;
7181;SDS011;3632;42.724;23.298;2022-07-29T00:43:17;14.47;;;13.00;;
7181;SDS011;3632;42.724;23.298;2022-07-29T00:45:44;14.20;;;13.00;;
7181;SDS011;3632;42.724;23.298;2022-07-29T00:48:11;13.57;;;12.20;;
7181;SDS011;3632;42.724;23.298;2022-07-29T00:50:38;13.63;;;12.23;;
7181;SDS011;3632;42.724;23.298;2022-07-29T00:53:07;12.97;;;11.83;;
7181;SDS011;3632;42.724;23.298;2022-07-29T00:55:34;13.13;;;11.93;;
7181;SDS011;3632;42.724;23.298;2022-07-29T00:58:01;13.63;;;12.10;;
7181;SDS011;3632;42.724;23.298;2022-07-29T01:00:28;13.80;;;12.40;;
7181;SDS011;3632;42.724;23.298;2022-07-29T01:02:55;12.90;;;11.70;;
7181;SDS011;3632;42.724;23.298;2022-07-29T01:05:23;13.30;;;11.90;;
7181;SDS011;3632;42.724;23.298;2022-07-29T01:07:52;13.80;;;12.27;;
7181;SDS011;3632;42.724;23.298;2022-07-29T01:10:21;13.43;;;12.03;;
7181;SDS011;3632;42.724;23.298;2022-07-29T01:12:51;13.50;;;12.23;;
7181;SDS011;3632;42.724;23.298;2022-07-29T01:15:20;12.93;;;11.67;;
7181;SDS011;3632;42.724;23.298;2022-07-29T01:17:49;13.37;;;11.97;;
7181;SDS011;3632;42.724;23.298;2022-07-29T01:20:23;12.23;;;11.07;;
7181;SDS011;3632;42.724;23.298;2022-07-29T01:23:01;13.00;;;11.60;;
7181;SDS011;3632;42.724;23.298;2022-07-29T01:29:02;13.60;;;12.17;;
7181;SDS011;3632;42.724;23.298;2022-07-29T01:31:33;13.03;;;11.90;;
7181;SDS011;3632;42.724;23.298;2022-07-29T01:34:07;13.07;;;11.77;;
7181;SDS011;3632;42.724;23.298;2022-07-29T01:36:39;13.10;;;11.87;;
7181;SDS011;3632;42.724;23.298;2022-07-29T01:39:10;14.03;;;11.73;;
7181;SDS011;3632;42.724;23.298;2022-07-29T01:41:42;12.93;;;11.70;;
7181;SDS011;3632;42.724;23.298;2022-07-29T01:44:16;13.50;;;12.30;;
7181;SDS011;3632;42.724;23.298;2022-07-29T01:46:49;12.93;;;11.67;;
7181;SDS011;3632;42.724;23.298;2022-07-29T01:49:20;13.30;;;12.00;;
7181;SDS011;3632;42.724;23.298;2022-07-29T01:51:50;13.83;;;11.70;;
7181;SDS011;3632;42.724;23.298;2022-07-29T01:54:20;13.07;;;11.87;;
7181;SDS011;3632;42.724;23.298;2022-07-29T01:56:51;13.43;;;12.13;;
7181;SDS011;3632;42.724;23.298;2022-07-29T01:59:22;12.40;;;11.40;;
7181;SDS011;3632;42.724;23.298;2022-07-29T02:01:53;13.40;;;12.13;;
7181;SDS011;3632;42.724;23.298;2022-07-29T02:04:21;13.50;;;12.20;;
7181;SDS011;3632;42.724;23.298;2022-07-29T02:06:49;14.00;;;12.70;;
7181;SDS011;3632;42.724;23.298;2022-07-29T02:09:19;12.90;;;11.60;;
7181;SDS011;3632;42.724;23.298;2022-07-29T02:11:48;13.57;;;12.27;;
7181;SDS011;3632;42.724;23.298;2022-07-29T02:14:17;13.70;;;12.40;;
7181;SDS011;3632;42.724;23.298;2022-07-29T02:16:48;13.93;;;12.63;;
7181;SDS011;3632;42.724;23.298;2022-07-29T02:19:18;14.30;;;12.80;;
7181;SDS011;3632;42.724;23.298;2022-07-29T02:21:47;14.67;;;13.27;;
7181;SDS011;3632;42.724;23.298;2022-07-29T02:24:15;14.10;;;12.77;;
7181;SDS011;3632;42.724;23.298;2022-07-29T02:26:44;13.90;;;12.70;;
7181;SDS011;3632;42.724;23.298;2022-07-29T02:29:11;14.80;;;13.40;;
7181;SDS011;3632;42.724;23.298;2022-07-29T02:31:40;13.63;;;12.33;;
7181;SDS011;3632;42.724;23.298;2022-07-29T02:34:09;14.30;;;12.80;;
7181;SDS011;3632;42.724;23.298;2022-07-29T02:36:37;13.40;;;12.10;;
7181;SDS011;3632;42.724;23.298;2022-07-29T02:39:05;13.80;;;12.43;;
7181;SDS011;3632;42.724;23.298;2022-07-29T02:41:38;13.57;;;12.37;;
7181;SDS011;3632;42.724;23.298;2022-07-29T02:44:09;13.90;;;12.53;;
7181;SDS011;3632;42.724;23.298;2022-07-29T02:46:37;14.57;;;12.33;;
7181;SDS011;3632;42.724;23.298;2022-07-29T02:49:13;13.93;;;12.50;;
7181;SDS011;3632;42.724;23.298;2022-07-29T02:51:45;14.03;;;12.63;;
7181;SDS011;3632;42.724;23.298;2022-07-29T02:54:19;14.17;;;12.87;;
7181;SDS011;3632;42.724;23.298;2022-07-29T02:56:49;14.30;;;12.80;;
7181;SDS011;3632;42.724;23.298;2022-07-29T02:59:22;14.37;;;13.00;;
7181;SDS011;3632;42.724;23.298;2022-07-29T03:01:53;14.47;;;13.17;;
7181;SDS011;3632;42.724;23.298;2022-07-29T03:04:25;13.73;;;12.63;;
7181;SDS011;3632;42.724;23.298;2022-07-29T03:06:54;14.13;;;12.77;;
7181;SDS011;3632;42.724;23.298;2022-07-29T03:09:25;14.80;;;13.40;;
7181;SDS011;3632;42.724;23.298;2022-07-29T03:11:53;15.17;;;13.73;;
7181;SDS011;3632;42.724;23.298;2022-07-29T03:14:21;14.93;;;13.53;;
7181;SDS011;3632;42.724;23.298;2022-07-29T03:16:49;15.60;;;14.00;;
7181;SDS011;3632;42.724;23.298;2022-07-29T03:19:17;17.30;;;13.70;;
7181;SDS011;3632;42.724;23.298;2022-07-29T03:21:45;16.63;;;15.03;;
7181;SDS011;3632;42.724;23.298;2022-07-29T03:24:23;15.83;;;14.43;;
7181;SDS011;3632;42.724;23.298;2022-07-29T03:26:54;16.43;;;15.03;;
7181;SDS011;3632;42.724;23.298;2022-07-29T03:29:21;16.60;;;15.03;;
7181;SDS011;3632;42.724;23.298;2022-07-29T03:31:48;16.13;;;14.63;;
7181;SDS011;3632;42.724;23.298;2022-07-29T03:34:15;15.93;;;14.33;;
7181;SDS011;3632;42.724;23.298;2022-07-29T03:36:41;16.67;;;14.80;;
7181;SDS011;3632;42.724;23.298;2022-07-29T03:39:09;14.97;;;13.57;;
7181;SDS011;3632;42.724;23.298;2022-07-29T03:41:38;14.83;;;13.30;;
7181;SDS011;3632;42.724;23.298;2022-07-29T03:44:06;14.83;;;13.33;;
7181;SDS011;3632;42.724;23.298;2022-07-29T03:46:35;15.37;;;13.60;;
7181;SDS011;3632;42.724;23.298;2022-07-29T03:49:03;14.27;;;12.77;;
7181;SDS011;3632;42.724;23.298;2022-07-29T03:51:33;16.00;;;14.13;;
7181;SDS011;3632;42.724;23.298;2022-07-29T03:54:01;15.13;;;12.90;;
7181;SDS011;3632;42.724;23.298;2022-07-29T03:56:29;15.27;;;13.80;;
7181;SDS011;3632;42.724;23.298;2022-07-29T03:59:00;16.17;;;14.67;;
7181;SDS011;3632;42.724;23.298;2022-07-29T04:01:28;17.30;;;15.47;;
7181;SDS011;3632;42.724;23.298;2022-07-29T04:03:55;16.50;;;14.93;;
7181;SDS011;3632;42.724;23.298;2022-07-29T04:06:23;16.30;;;14.60;;
7181;SDS011;3632;42.724;23.298;2022-07-29T04:08:50;20.47;;;17.73;;
7181;SDS011;3632;42.724;23.298;2022-07-29T04:11:17;15.77;;;14.33;;
7181;SDS011;3632;42.724;23.298;2022-07-29T04:13:45;16.00;;;14.50;;
7181;SDS011;3632;42.724;23.298;2022-07-29T04:16:12;16.17;;;14.13;;
7181;SDS011;3632;42.724;23.298;2022-07-29T04:18:39;16.67;;;14.97;;
7181;SDS011;3632;42.724;23.298;2022-07-29T04:21:05;15.30;;;13.70;;
7181;SDS011;3632;42.724;23.298;2022-07-29T04:23:32;16.67;;;14.77;;
7181;SDS011;3632;42.724;23.298;2022-07-29T04:25:59;18.33;;;14.37;;
7181;SDS011;3632;42.724;23.298;2022-07-29T04:28:26;15.43;;;13.83;;
7181;SDS011;3632;42.724;23.298;2022-07-29T04:30:54;15.70;;;14.03;;
7181;SDS011;3632;42.724;23.298;2022-07-29T04:33:21;14.77;;;13.37;;
7181;SDS011;3632;42.724;23.298;2022-07-29T04:35:48;15.63;;;14.00;;
7181;SDS011;3632;42.724;23.298;2022-07-29T04:38:14;15.03;;;13.60;;
7181;SDS011;3632;42.724;23.298;2022-07-29T04:40:41;15.90;;;14.40;;
7181;SDS011;3632;42.724;23.298;2022-07-29T04:43:08;16.50;;;14.80;;
7181;SDS011;3632;42.724;23.298;2022-07-29T04:45:35;15.47;;;14.03;;
7181;SDS011;3632;42.724;23.298;2022-07-29T04:48:03;17.57;;;14.67;;
7181;SDS011;3632;42.724;23.298;2022-07-29T04:50:30;18.60;;;14.50;;
7181;SDS011;3632;42.724;23.298;2022-07-29T04:52:57;15.23;;;13.80;;
7181;SDS011;3632;42.724;23.298;2022-07-29T04:55:24;16.47;;;14.73;;
7181;SDS011;3632;42.724;23.298;2022-07-29T04:57:51;15.77;;;14.07;;
7181;SDS011;3632;42.724;23.298;2022-07-29T05:00:18;16.43;;;14.80;;
7181;SDS011;3632;42.724;23.298;2022-07-29T05:02:44;16.67;;;15.07;;
7181;SDS011;3632;42.724;23.298;2022-07-29T05:05:12;17.80;;;15.90;;
7181;SDS011;3632;42.724;23.298;2022-07-29T05:07:39;17.30;;;15.53;;
7181;SDS011;3632;42.724;23.298;2022-07-29T05:10:06;16.67;;;14.97;;
7181;SDS011;3632;42.724;23.298;2022-07-29T05:12:33;18.77;;;15.20;;
7181;SDS011;3632;42.724;23.298;2022-07-29T05:15:00;16.37;;;14.50;;
7181;SDS011;3632;42.724;23.298;2022-07-29T05:17:27;16.77;;;15.03;;
7181;SDS011;3632;42.724;23.298;2022-07-29T05:19:54;15.57;;;14.07;;
7181;SDS011;3632;42.724;23.298;2022-07-29T05:22:22;22.43;;;14.70;;
7181;SDS011;3632;42.724;23.298;2022-07-29T05:24:49;17.53;;;15.00;;
7181;SDS011;3632;42.724;23.298;2022-07-29T05:27:16;17.70;;;16.03;;
7181;SDS011;3632;42.724;23.298;2022-07-29T05:29:42;15.90;;;14.37;;
7181;SDS011;3632;42.724;23.298;2022-07-29T05:32:09;16.77;;;15.07;;
7181;SDS011;3632;42.724;23.298;2022-07-29T05:34:36;20.73;;;15.93;;
7181;SDS011;3632;42.724;23.298;2022-07-29T05:37:03;17.40;;;15.60;;
7181;SDS011;3632;42.724;23.298;2022-07-29T05:39:31;18.00;;;16.20;;
7181;SDS011;3632;42.724;23.298;2022-07-29T05:41:58;17.77;;;15.80;;
7181;SDS011;3632;42.724;23.298;2022-07-29T05:44:25;18.03;;;15.90;;
7181;SDS011;3632;42.724;23.298;2022-07-29T05:46:52;17.07;;;15.27;;
7181;SDS011;3632;42.724;23.298;2022-07-29T05:49:18;21.13;;;18.97;;
7181;SDS011;3632;42.724;23.298;2022-07-29T05:51:45;18.50;;;16.73;;
7181;SDS011;3632;42.724;23.298;2022-07-29T05:54:13;21.17;;;17.90;;
7181;SDS011;3632;42.724;23.298;2022-07-29T05:56:42;20.03;;;18.17;;
7181;SDS011;3632;42.724;23.298;2022-07-29T05:59:08;20.83;;;18.60;;
7181;SDS011;3632;42.724;23.298;2022-07-29T06:01:35;21.80;;;18.47;;
7181;SDS011;3632;42.724;23.298;2022-07-29T06:04:04;20.77;;;18.37;;
7181;SDS011;3632;42.724;23.298;2022-07-29T06:06:31;19.47;;;17.43;;
7181;SDS011;3632;42.724;23.298;2022-07-29T06:08:58;17.97;;;16.00;;
7181;SDS011;3632;42.724;23.298;2022-07-29T06:11:24;18.07;;;15.50;;
7181;SDS011;3632;42.724;23.298;2022-07-29T06:13:53;16.90;;;15.10;;
7181;SDS011;3632;42.724;23.298;2022-07-29T06:16:19;14.77;;;12.57;;
7181;SDS011;3632;42.724;23.298;2022-07-29T06:18:46;14.50;;;12.17;;
7181;SDS011;3632;42.724;23.298;2022-07-29T06:21:13;11.63;;;10.03;;
7181;SDS011;3632;42.724;23.298;2022-07-29T06:23:40;11.23;;;9.10;;
7181;SDS011;3632;42.724;23.298;2022-07-29T06:26:07;9.80;;;8.80;;
7181;SDS011;3632;42.724;23.298;2022-07-29T06:28:34;11.57;;;8.37;;
7181;SDS011;3632;42.724;23.298;2022-07-29T06:31:02;9.80;;;8.13;;
7181;SDS011;3632;42.724;23.298;2022-07-29T06:33:28;11.67;;;8.17;;
7181;SDS011;3632;42.724;23.298;2022-07-29T06:35:55;9.60;;;7.70;;
7181;SDS011;3632;42.724;23.298;2022-07-29T06:38:22;7.97;;;7.30;;
7181;SDS011;3632;42.724;23.298;2022-07-29T06:40:49;10.50;;;7.50;;
7181;SDS011;3632;42.724;23.298;2022-07-29T06:43:29;7.77;;;6.87;;
7181;SDS011;3632;42.724;23.298;2022-07-29T06:45:59;9.53;;;6.00;;
7181;SDS011;3632;42.724;23.298;2022-07-29T06:48:28;8.20;;;5.83;;
7181;SDS011;3632;42.724;23.298;2022-07-29T06:50:55;8.63;;;5.80;;
7181;SDS011;3632;42.724;23.298;2022-07-29T06:53:21;11.37;;;5.77;;
7181;SDS011;3632;42.724;23.298;2022-07-29T06:55:49;7.43;;;5.73;;
7181;SDS011;3632;42.724;23.298;2022-07-29T06:58:16;7.20;;;5.23;;
7181;SDS011;3632;42.724;23.298;2022-07-29T07:00:45;7.83;;;5.20;;
7181;SDS011;3632;42.724;23.298;2022-07-29T07:03:12;6.60;;;5.90;;
7181;SDS011;3632;42.724;23.298;2022-07-29T07:05:40;6.33;;;5.20;;
7181;SDS011;3632;42.724;23.298;2022-07-29T07:08:07;6.80;;;6.10;;
7181;SDS011;3632;42.724;23.298;2022-07-29T07:10:33;6.07;;;4.90;;
7181;SDS011;3632;42.724;23.298;2022-07-29T07:13:01;5.57;;;4.47;;
7181;SDS011;3632;42.724;23.298;2022-07-29T07:15:27;9.77;;;5.37;;
7181;SDS011;3632;42.724;23.298;2022-07-29T07:17:54;6.33;;;5.30;;
7181;SDS011;3632;42.724;23.298;2022-07-29T07:20:22;5.30;;;4.80;;
7181;SDS011;3632;42.724;23.298;2022-07-29T07:22:50;6.40;;;5.80;;
7181;SDS011;3632;42.724;23.298;2022-07-29T07:25:17;6.73;;;5.33;;
7181;SDS011;3632;42.724;23.298;2022-07-29T07:27:44;4.70;;;4.30;;
7181;SDS011;3632;42.724;23.298;2022-07-29T07:30:12;7.00;;;6.13;;
7181;SDS011;3632;42.724;23.298;2022-07-29T07:32:39;5.83;;;5.20;;
7181;SDS011;3632;42.724;23.298;2022-07-29T07:35:06;4.80;;;4.40;;
7181;SDS011;3632;42.724;23.298;2022-07-29T07:37:35;6.07;;;4.20;;
7181;SDS011;3632;42.724;23.298;2022-07-29T07:40:05;7.37;;;6.47;;
7181;SDS011;3632;42.724;23.298;2022-07-29T07:42:32;6.83;;;6.13;;
7181;SDS011;3632;42.724;23.298;2022-07-29T07:44:59;7.10;;;6.40;;
7181;SDS011;3632;42.724;23.298;2022-07-29T07:47:26;5.23;;;4.73;;
7181;SDS011;3632;42.724;23.298;2022-07-29T07:49:53;6.57;;;4.67;;
7181;SDS011;3632;42.724;23.298;2022-07-29T07:52:20;5.13;;;4.67;;
7181;SDS011;3632;42.724;23.298;2022-07-29T07:54:48;5.13;;;4.73;;
7181;SDS011;3632;42.724;23.298;2022-07-29T07:57:16;5.57;;;5.00;;
7181;SDS011;3632;42.724;23.298;2022-07-29T07:59:43;5.80;;;4.53;;
7181;SDS011;3632;42.724;23.298;2022-07-29T08:02:10;4.93;;;4.27;;
7181;SDS011;3632;42.724;23.298;2022-07-29T08:04:37;5.57;;;4.33;;
7181;SDS011;3632;42.724;23.298;2022-07-29T08:07:05;5.63;;;4.10;;
7181;SDS011;3632;42.724;23.298;2022-07-29T08:09:32;5.47;;;4.93;;
7181;SDS011;3632;42.724;23.298;2022-07-29T08:11:59;5.10;;;4.70;;
7181;SDS011;3632;42.724;23.298;2022-07-29T08:14:30;4.57;;;4.17;;
7181;SDS011;3632;42.724;23.298;2022-07-29T08:16:57;5.37;;;4.17;;
7181;SDS011;3632;42.724;23.298;2022-07-29T08:19:23;8.47;;;4.50;;
7181;SDS011;3632;42.724;23.298;2022-07-29T08:21:50;5.50;;;3.87;;
7181;SDS011;3632;42.724;23.298;2022-07-29T08:24:18;5.40;;;4.83;;
7181;SDS011;3632;42.724;23.298;2022-07-29T08:27:02;5.20;;;4.17;;
7181;SDS011;3632;42.724;23.298;2022-07-29T08:29:30;5.83;;;5.30;;
7181;SDS011;3632;42.724;23.298;2022-07-29T08:31:57;6.30;;;3.97;;
7181;SDS011;3632;42.724;23.298;2022-07-29T08:34:24;4.93;;;4.40;;
7181;SDS011;3632;42.724;23.298;2022-07-29T08:36:51;5.70;;;3.67;;
7181;SDS011;3632;42.724;23.298;2022-07-29T08:39:18;4.07;;;3.67;;
7181;SDS011;3632;42.724;23.298;2022-07-29T08:41:44;7.03;;;6.33;;
7181;SDS011;3632;42.724;23.298;2022-07-29T08:44:12;5.00;;;4.60;;
7181;SDS011;3632;42.724;23.298;2022-07-29T08:46:41;7.23;;;4.27;;
7181;SDS011;3632;42.724;23.298;2022-07-29T08:49:08;4.73;;;3.97;;
7181;SDS011;3632;42.724;23.298;2022-07-29T08:51:35;4.80;;;4.20;;
7181;SDS011;3632;42.724;23.298;2022-07-29T08:54:05;5.00;;;4.50;;
7181;SDS011;3632;42.724;23.298;2022-07-29T08:56:32;5.50;;;4.30;;
7181;SDS011;3632;42.724;23.298;2022-07-29T08:59:02;8.83;;;3.80;;
7181;SDS011;3632;42.724;23.298;2022-07-29T09:01:32;4.07;;;3.70;;
7181;SDS011;3632;42.724;23.298;2022-07-29T09:04:01;4.53;;;3.83;;
7181;SDS011;3632;42.724;23.298;2022-07-29T09:06:32;5.37;;;3.57;;
7181;SDS011;3632;42.724;23.298;2022-07-29T09:09:03;6.23;;;5.30;;
7181;SDS011;3632;42.724;23.298;2022-07-29T09:11:31;7.23;;;4.13;;
7181;SDS011;3632;42.724;23.298;2022-07-29T09:13:58;3.90;;;3.60;;
7181;SDS011;3632;42.724;23.298;2022-07-29T09:16:42;6.80;;;4.30;;
7181;SDS011;3632;42.724;23.298;2022-07-29T09:19:16;5.20;;;3.53;;
7181;SDS011;3632;42.724;23.298;2022-07-29T09:21:46;4.37;;;3.60;;
7181;SDS011;3632;42.724;23.298;2022-07-29T09:24:26;5.17;;;4.17;;
7181;SDS011;3632;42.724;23.298;2022-07-29T09:27:03;4.67;;;3.57;;
7181;SDS011;3632;42.724;23.298;2022-07-29T09:29:34;3.77;;;3.17;;
7181;SDS011;3632;42.724;23.298;2022-07-29T09:32:02;4.27;;;3.87;;
7181;SDS011;3632;42.724;23.298;2022-07-29T09:34:36;4.13;;;3.83;;
7181;SDS011;3632;42.724;23.298;2022-07-29T09:37:03;4.63;;;3.90;;
7181;SDS011;3632;42.724;23.298;2022-07-29T09:39:31;6.73;;;4.27;;
7181;SDS011;3632;42.724;23.298;2022-07-29T09:42:00;6.47;;;4.67;;
7181;SDS011;3632;42.724;23.298;2022-07-29T09:44:40;4.80;;;3.90;;
7181;SDS011;3632;42.724;23.298;2022-07-29T09:47:08;5.73;;;4.10;;
7181;SDS011;3632;42.724;23.298;2022-07-29T09:49:50;5.03;;;4.53;;
7181;SDS011;3632;42.724;23.298;2022-07-29T09:52:19;4.27;;;3.87;;
7181;SDS011;3632;42.724;23.298;2022-07-29T09:54:46;4.03;;;3.70;;
7181;SDS011;3632;42.724;23.298;2022-07-29T09:57:21;4.20;;;3.80;;
7181;SDS011;3632;42.724;23.298;2022-07-29T09:59:55;5.10;;;4.07;;
7181;SDS011;3632;42.724;23.298;2022-07-29T10:02:24;5.17;;;3.67;;
7181;SDS011;3632;42.724;23.298;2022-07-29T10:04:55;6.50;;;4.30;;
7181;SDS011;3632;42.724;23.298;2022-07-29T10:07:22;4.40;;;3.93;;
7181;SDS011;3632;42.724;23.298;2022-07-29T10:09:50;3.90;;;3.33;;
7181;SDS011;3632;42.724;23.298;2022-07-29T10:12:19;4.70;;;3.97;;
7181;SDS011;3632;42.724;23.298;2022-07-29T10:14:46;5.25;;;4.07;;
7181;SDS011;3632;42.724;23.298;2022-07-29T10:17:14;4.90;;;4.40;;
7181;SDS011;3632;42.724;23.298;2022-07-29T10:19:42;4.57;;;4.10;;
7181;SDS011;3632;42.724;23.298;2022-07-29T10:22:10;7.45;;;6.30;;
7181;SDS011;3632;42.724;23.298;2022-07-29T10:24:38;6.40;;;3.88;;
7181;SDS011;3632;42.724;23.298;2022-07-29T10:27:05;3.70;;;3.40;;
7181;SDS011;3632;42.724;23.298;2022-07-29T10:29:33;3.90;;;3.60;;
7181;SDS011;3632;42.724;23.298;2022-07-29T10:32:09;4.00;;;3.30;;
7181;SDS011;3632;42.724;23.298;2022-07-29T10:34:49;5.55;;;5.05;;
7181;SDS011;3632;42.724;23.298;2022-07-29T10:37:33;5.93;;;3.60;;
7181;SDS011;3632;42.724;23.298;2022-07-29T10:40:11;3.83;;;3.53;;
7181;SDS011;3632;42.724;23.298;2022-07-29T10:43:06;8.68;;;3.75;;
7181;SDS011;3632;42.724;23.298;2022-07-29T10:45:42;4.78;;;3.90;;
7181;SDS011;3632;42.724;23.298;2022-07-29T10:48:09;4.85;;;3.28;;
7181;SDS011;3632;42.724;23.298;2022-07-29T10:50:51;8.43;;;3.60;;
7181;SDS011;3632;42.724;23.298;2022-07-29T10:53:20;3.47;;;3.17;;
7181;SDS011;3632;42.724;23.298;2022-07-29T10:55:48;3.70;;;3.30;;
7181;SDS011;3632;42.724;23.298;2022-07-29T10:58:17;5.47;;;4.00;;
7181;SDS011;3632;42.724;23.298;2022-07-29T11:00:45;4.63;;;3.45;;
7181;SDS011;3632;42.724;23.298;2022-07-29T11:06:13;7.18;;;6.47;;
7181;SDS011;3632;42.724;23.298;2022-07-29T11:08:41;4.63;;;4.07;;
7181;SDS011;3632;42.724;23.298;2022-07-29T11:14:00;167.20;;;14.95;;
7181;SDS011;3632;42.724;23.298;2022-07-29T11:16:30;10.07;;;4.28;;
7181;SDS011;3632;42.724;23.298;2022-07-29T11:19:28;6.00;;;3.60;;
7181;SDS011;3632;42.724;23.298;2022-07-29T11:21:55;9.13;;;4.18;;
7181;SDS011;3632;42.724;23.298;2022-07-29T11:24:25;5.95;;;3.47;;
7181;SDS011;3632;42.724;23.298;2022-07-29T11:27:10;5.75;;;4.00;;
7181;SDS011;3632;42.724;23.298;2022-07-29T11:29:39;6.43;;;4.13;;
7181;SDS011;3632;42.724;23.298;2022-07-29T11:32:14;4.97;;;3.63;;
7181;SDS011;3632;42.724;23.298;2022-07-29T11:34:43;4.32;;;3.90;;
7181;SDS011;3632;42.724;23.298;2022-07-29T11:37:20;4.90;;;3.90;;
7181;SDS011;3632;42.724;23.298;2022-07-29T11:42:44;4.45;;;3.92;;
7181;SDS011;3632;42.724;23.298;2022-07-29T11:45:16;8.20;;;3.92;;
7181;SDS011;3632;42.724;23.298;2022-07-29T11:47:50;4.43;;;3.95;;
7181;SDS011;3632;42.724;23.298;2022-07-29T11:50:30;5.00;;;4.50;;
7181;SDS011;3632;42.724;23.298;2022-07-29T11:53:01;4.20;;;3.80;;
7181;SDS011;3632;42.724;23.298;2022-07-29T11:55:31;6.03;;;5.30;;
7181;SDS011;3632;42.724;23.298;2022-07-29T11:58:01;5.70;;;4.50;;
7181;SDS011;3632;42.724;23.298;2022-07-29T12:00:29;6.18;;;5.68;;
7181;SDS011;3632;42.724;23.298;2022-07-29T12:02:58;5.82;;;4.32;;
7181;SDS011;3632;42.724;23.298;2022-07-29T12:05:32;5.75;;;5.22;;
7181;SDS011;3632;42.724;23.298;2022-07-29T12:08:08;5.75;;;4.68;;
7181;SDS011;3632;42.724;23.298;2022-07-29T12:10:38;4.75;;;4.20;;
7181;SDS011;3632;42.724;23.298;2022-07-29T12:13:06;5.13;;;4.20;;
7181;SDS011;3632;42.724;23.298;2022-07-29T12:15:33;4.43;;;3.70;;
7181;SDS011;3632;42.724;23.298;2022-07-29T12:18:09;5.22;;;3.90;;
7181;SDS011;3632;42.724;23.298;2022-07-29T12:20:40;4.30;;;3.95;;
7181;SDS011;3632;42.724;23.298;2022-07-29T12:23:07;4.70;;;4.30;;
7181;SDS011;3632;42.724;23.298;2022-07-29T12:25:38;6.15;;;4.18;;
7181;SDS011;3632;42.724;23.298;2022-07-29T12:28:07;4.50;;;4.20;;
7181;SDS011;3632;42.724;23.298;2022-07-29T12:30:39;7.72;;;4.63;;
7181;SDS011;3632;42.724;23.298;2022-07-29T12:33:10;9.77;;;8.98;;
7181;SDS011;3632;42.724;23.298;2022-07-29T12:35:39;6.28;;;5.78;;
7181;SDS011;3632;42.724;23.298;2022-07-29T12:38:09;6.80;;;5.70;;
7181;SDS011;3632;42.724;23.298;2022-07-29T12:40:36;4.47;;;4.10;;
7181;SDS011;3632;42.724;23.298;2022-07-29T12:43:12;4.78;;;4.32;;
7181;SDS011;3632;42.724;23.298;2022-07-29T12:45:41;7.15;;;4.30;;
7181;SDS011;3632;42.724;23.298;2022-07-29T12:48:09;5.88;;;4.60;;
7181;SDS011;3632;42.724;23.298;2022-07-29T12:50:50;4.90;;;4.43;;
7181;SDS011;3632;42.724;23.298;2022-07-29T12:53:18;4.78;;;4.35;;
7181;SDS011;3632;42.724;23.298;2022-07-29T12:55:46;5.05;;;4.38;;
7181;SDS011;3632;42.724;23.298;2022-07-29T12:58:27;4.80;;;4.50;;
7181;SDS011;3632;42.724;23.298;2022-07-29T13:00:59;4.80;;;4.40;;
7181;SDS011;3632;42.724;23.298;2022-07-29T13:03:41;5.13;;;4.60;;
7181;SDS011;3632;42.724;23.298;2022-07-29T13:08:58;6.30;;;5.80;;
7181;SDS011;3632;42.724;23.298;2022-07-29T13:11:27;6.95;;;6.35;;
7181;SDS011;3632;42.724;23.298;2022-07-29T13:13:56;5.13;;;4.72;;
7181;SDS011;3632;42.724;23.298;2022-07-29T13:16:23;8.73;;;6.20;;
7181;SDS011;3632;42.724;23.298;2022-07-29T13:19:02;5.22;;;4.82;;
7181;SDS011;3632;42.724;23.298;2022-07-29T13:21:33;4.60;;;4.28;;
7181;SDS011;3632;42.724;23.298;2022-07-29T13:24:00;6.40;;;5.40;;
7181;SDS011;3632;42.724;23.298;2022-07-29T13:26:27;5.22;;;4.72;;
7181;SDS011;3632;42.724;23.298;2022-07-29T13:28:55;5.32;;;4.70;;
7181;SDS011;3632;42.724;23.298;2022-07-29T13:31:22;5.60;;;4.50;;
7181;SDS011;3632;42.724;23.298;2022-07-29T13:33:49;4.93;;;4.53;;
7181;SDS011;3632;42.724;23.298;2022-07-29T13:36:16;4.68;;;4.28;;
7181;SDS011;3632;42.724;23.298;2022-07-29T13:38:42;5.70;;;4.32;;
7181;SDS011;3632;42.724;23.298;2022-07-29T13:41:09;6.00;;;4.40;;
7181;SDS011;3632;42.724;23.298;2022-07-29T13:43:36;5.93;;;4.20;;
7181;SDS011;3632;42.724;23.298;2022-07-29T13:46:04;4.68;;;4.28;;
7181;SDS011;3632;42.724;23.298;2022-07-29T13:48:31;5.13;;;4.65;;
7181;SDS011;3632;42.724;23.298;2022-07-29T13:50:58;5.28;;;4.88;;
7181;SDS011;3632;42.724;23.298;2022-07-29T13:53:25;7.00;;;5.35;;
7181;SDS011;3632;42.724;23.298;2022-07-29T13:55:52;5.07;;;4.57;;
7181;SDS011;3632;42.724;23.298;2022-07-29T13:58:20;5.90;;;4.85;;
7181;SDS011;3632;42.724;23.298;2022-07-29T14:00:47;5.25;;;4.75;;
7181;SDS011;3632;42.724;23.298;2022-07-29T14:03:15;6.28;;;5.78;;
7181;SDS011;3632;42.724;23.298;2022-07-29T14:05:42;5.32;;;4.63;;
7181;SDS011;3632;42.724;23.298;2022-07-29T14:08:09;4.55;;;4.15;;
7181;SDS011;3632;42.724;23.298;2022-07-29T14:10:35;4.70;;;4.30;;
7181;SDS011;3632;42.724;23.298;2022-07-29T14:13:02;5.18;;;4.40;;
7181;SDS011;3632;42.724;23.298;2022-07-29T14:15:29;6.28;;;4.63;;
7181;SDS011;3632;42.724;23.298;2022-07-29T14:17:56;5.20;;;4.20;;
7181;SDS011;3632;42.724;23.298;2022-07-29T14:20:24;6.40;;;4.30;;
7181;SDS011;3632;42.724;23.298;2022-07-29T14:22:51;5.25;;;4.80;;
7181;SDS011;3632;42.724;23.298;2022-07-29T14:25:19;5.50;;;5.00;;
7181;SDS011;3632;42.724;23.298;2022-07-29T14:27:46;5.13;;;4.60;;
7181;SDS011;3632;42.724;23.298;2022-07-29T14:30:13;5.28;;;4.78;;
7181;SDS011;3632;42.724;23.298;2022-07-29T14:32:40;6.13;;;5.63;;
7181;SDS011;3632;42.724;23.298;2022-07-29T14:35:07;10.43;;;9.27;;
7181;SDS011;3632;42.724;23.298;2022-07-29T14:37:36;9.20;;;8.30;;
7181;SDS011;3632;42.724;23.298;2022-07-29T14:40:03;6.00;;;5.28;;
7181;SDS011;3632;42.724;23.298;2022-07-29T14:42:31;5.25;;;4.78;;
7181;SDS011;3632;42.724;23.298;2022-07-29T14:44:57;7.53;;;6.82;;
7181;SDS011;3632;42.724;23.298;2022-07-29T14:47:24;7.60;;;5.10;;
7181;SDS011;3632;42.724;23.298;2022-07-29T14:49:51;6.03;;;5.30;;
7181;SDS011;3632;42.724;23.298;2022-07-29T14:52:18;5.40;;;5.00;;
7181;SDS011;3632;42.724;23.298;2022-07-29T14:54:46;6.88;;;5.22;;
7181;SDS011;3632;42.724;23.298;2022-07-29T14:57:13;6.40;;;5.00;;
7181;SDS011;3632;42.724;23.298;2022-07-29T14:59:40;7.15;;;6.45;;
7181;SDS011;3632;42.724;23.298;2022-07-29T15:02:07;5.88;;;4.68;;
7181;SDS011;3632;42.724;23.298;2022-07-29T15:04:33;5.18;;;4.75;;
7181;SDS011;3632;42.724;23.298;2022-07-29T15:07:00;6.85;;;5.50;;
7181;SDS011;3632;42.724;23.298;2022-07-29T15:09:27;7.43;;;6.10;;
7181;SDS011;3632;42.724;23.298;2022-07-29T15:11:56;8.65;;;6.03;;
7181;SDS011;3632;42.724;23.298;2022-07-29T15:14:22;5.82;;;5.18;;
7181;SDS011;3632;42.724;23.298;2022-07-29T15:16:49;5.95;;;5.35;;